Time;durP1;ratioP1;P1;durP2;ratioP2;P2;SDS_P1;SDS_P2;PMS_P1;PMS_P2;Temp;Humidity;BMP_temperature;BMP_pressure;BME280_temperature;BME280_humidity;BME280_pressure;Samples;Min_cycle;Max_cycle;Signal;HPM_P1;HPM_P2
2022/01/22 00:01:43;;;;;;;11.27;1.85;;;;;;;;;;5143103;27;20053;-64
2022/01/22 00:04:10;;;;;;;12.63;1.90;;;;;;;;;;5131373;27;20044;-63
2022/01/22 00:06:36;;;;;;;12.90;2.10;;;;;;;;;;5130028;27;20192;-64
2022/01/22 00:09:03;;;;;;;22.15;2.08;;;;;;;;;;5132256;27;20052;-64
2022/01/22 00:11:35;;;;;;;13.77;2.33;;;;;;;;;;5146716;27;20052;-64
2022/01/22 00:16:47;;;;;;;17.42;2.20;;;;;;;;;;5128134;27;20054;-64
2022/01/22 00:19:14;;;;;;;12.93;1.70;;;;;;;;;;5131603;27;20051;-64
2022/01/22 00:21:40;;;;;;;13.75;2.20;;;;;;;;;;5136161;27;20063;-64
2022/01/22 00:24:10;;;;;;;19.00;2.60;;;;;;;;;;5143954;27;20054;-64
2022/01/22 00:26:36;;;;;;;12.45;1.67;;;;;;;;;;5137133;27;20055;-64
2022/01/22 00:29:03;;;;;;;12.43;2.13;;;;;;;;;;5147399;27;20058;-64
2022/01/22 00:31:29;;;;;;;13.82;1.73;;;;;;;;;;5146014;27;20152;-64
2022/01/22 00:33:55;;;;;;;10.50;1.90;;;;;;;;;;5137553;27;20055;-64
2022/01/22 00:36:22;;;;;;;10.65;1.55;;;;;;;;;;5149527;27;20051;-64
2022/01/22 00:38:48;;;;;;;12.65;1.80;;;;;;;;;;5131611;27;20051;-64
2022/01/22 00:41:14;;;;;;;13.00;2.10;;;;;;;;;;5133785;27;20060;-64
2022/01/22 00:43:41;;;;;;;10.50;2.33;;;;;;;;;;5147204;27;20164;-64
2022/01/22 00:46:07;;;;;;;10.32;2.20;;;;;;;;;;5151121;27;20051;-64
2022/01/22 00:48:33;;;;;;;17.48;2.63;;;;;;;;;;5131716;27;20056;-64
2022/01/22 00:51:00;;;;;;;11.35;2.08;;;;;;;;;;5131063;27;20048;-64
2022/01/22 00:53:26;;;;;;;16.00;2.13;;;;;;;;;;5132481;27;20098;-64
2022/01/22 00:55:53;;;;;;;13.85;2.70;;;;;;;;;;5142741;27;20050;-64
2022/01/22 00:58:19;;;;;;;12.77;2.05;;;;;;;;;;5141106;27;20057;-64
2022/01/22 01:00:45;;;;;;;15.25;2.47;;;;;;;;;;5131577;27;20054;-64
2022/01/22 01:03:12;;;;;;;19.92;2.55;;;;;;;;;;5150297;27;20077;-64
2022/01/22 01:05:39;;;;;;;13.93;2.47;;;;;;;;;;5152468;27;20059;-64
2022/01/22 01:08:05;;;;;;;17.73;2.40;;;;;;;;;;5152489;27;20058;-64
2022/01/22 01:10:31;;;;;;;13.23;2.30;;;;;;;;;;5151465;27;20047;-64
2022/01/22 01:12:58;;;;;;;18.15;2.63;;;;;;;;;;5137566;27;20059;-64
2022/01/22 01:34:42;;;;;;;14.70;3.17;;;;;;;;;;5146775;27;20051;-65
2022/01/22 01:37:11;;;;;;;8.88;2.22;;;;;;;;;;5133861;27;20079;-64
2022/01/22 01:39:39;;;;;;;11.35;2.70;;;;;;;;;;5137839;27;20501;-64
2022/01/22 01:42:09;;;;;;;17.33;3.28;;;;;;;;;;5130101;27;20051;-64
2022/01/22 01:44:36;;;;;;;18.00;2.92;;;;;;;;;;5131229;27;20147;-65
2022/01/22 01:47:04;;;;;;;12.77;2.95;;;;;;;;;;5143249;27;20151;-64
2022/01/22 01:49:31;;;;;;;19.20;3.87;;;;;;;;;;5133723;27;20050;-64
2022/01/22 01:52:00;;;;;;;18.17;3.25;;;;;;;;;;5129063;27;20043;-64
2022/01/22 01:55:00;;;;;;;17.92;2.83;;;;;;;;;;5133265;27;20058;-64
2022/01/22 02:00:20;;;;;;;21.08;2.60;;;;;;;;;;5062918;28;20665;-64
2022/01/22 02:02:47;;;;;;;19.92;3.38;;;;;;;;;;5045477;28;20641;-64
2022/01/22 02:05:14;;;;;;;14.25;3.33;;;;;;;;;;5085289;27;20081;-64
2022/01/22 02:07:42;;;;;;;14.98;3.20;;;;;;;;;;5130475;27;20179;-64
2022/01/22 02:10:12;;;;;;;21.40;3.92;;;;;;;;;;5130886;27;20527;-64
2022/01/22 02:13:37;;;;;;;19.02;4.00;;;;;;;;;;5141084;27;20043;-64
2022/01/22 02:23:51;;;;;;;14.73;3.75;;;;;;;;;;5143465;27;20061;-64
2022/01/22 02:26:18;;;;;;;18.27;4.00;;;;;;;;;;5148018;27;20066;-64
2022/01/22 02:28:48;;;;;;;19.17;4.10;;;;;;;;;;5141393;27;20051;-64
2022/01/22 02:31:30;;;;;;;18.40;3.97;;;;;;;;;;5129226;27;20056;-64
2022/01/22 02:34:17;;;;;;;13.65;3.78;;;;;;;;;;5134225;27;20052;-64
2022/01/22 02:36:57;;;;;;;26.67;5.10;;;;;;;;;;5139018;27;20055;-64
2022/01/22 02:39:41;;;;;;;20.85;4.13;;;;;;;;;;5130309;27;20142;-64
2022/01/22 02:42:08;;;;;;;15.65;3.45;;;;;;;;;;5146623;27;20433;-65
2022/01/22 02:44:36;;;;;;;23.02;4.40;;;;;;;;;;5130033;27;20058;-64
2022/01/22 02:47:04;;;;;;;18.38;3.75;;;;;;;;;;5129588;27;20047;-64
2022/01/22 02:49:31;;;;;;;19.77;3.42;;;;;;;;;;5133302;27;20136;-64
2022/01/22 02:51:59;;;;;;;17.35;3.75;;;;;;;;;;5146539;27;20063;-64
2022/01/22 02:54:25;;;;;;;24.73;4.05;;;;;;;;;;5147460;27;20147;-64
2022/01/22 02:56:51;;;;;;;21.63;3.78;;;;;;;;;;5132488;27;20054;-64
2022/01/22 02:59:21;;;;;;;18.05;4.30;;;;;;;;;;5129841;27;20074;-64
2022/01/22 03:01:48;;;;;;;16.30;3.28;;;;;;;;;;5145975;27;20457;-64
2022/01/22 03:04:15;;;;;;;21.50;4.05;;;;;;;;;;5134564;27;20104;-62
2022/01/22 03:06:41;;;;;;;18.83;3.83;;;;;;;;;;5136590;27;20043;-63
2022/01/22 03:09:10;;;;;;;20.98;3.45;;;;;;;;;;5148618;27;20057;-63
2022/01/22 03:12:15;;;;;;;19.63;3.75;;;;;;;;;;5144743;27;20436;-63
2022/01/22 03:20:36;;;;;;;17.35;3.20;;;;;;;;;;5074604;28;20068;-63
2022/01/22 03:27:13;;;;;;;16.92;3.78;;;;;;;;;;5136617;27;20086;-63
2022/01/22 03:28:53;;;;;;;15.73;3.97;;;;;;;;;;5142520;27;20094;-63
2022/01/22 03:31:19;;;;;;;15.85;3.13;;;;;;;;;;5129000;27;20134;-63
2022/01/22 03:33:45;;;;;;;10.57;3.10;;;;;;;;;;5131538;27;20410;-63
2022/01/22 03:36:12;;;;;;;12.73;2.70;;;;;;;;;;5145894;27;20051;-63
2022/01/22 03:38:38;;;;;;;19.42;3.50;;;;;;;;;;5149100;27;20066;-63
2022/01/22 03:41:09;;;;;;;18.92;3.50;;;;;;;;;;5148640;27;20070;-63
2022/01/22 03:43:38;;;;;;;22.80;3.75;;;;;;;;;;5149515;27;20846;-63
2022/01/22 03:46:05;;;;;;;16.58;3.30;;;;;;;;;;5137978;27;20804;-65
2022/01/22 03:48:31;;;;;;;15.35;3.55;;;;;;;;;;5128829;27;20048;-63
2022/01/22 03:50:58;;;;;;;17.55;3.47;;;;;;;;;;5128279;27;20044;-65
2022/01/22 03:53:24;;;;;;;18.00;4.05;;;;;;;;;;5135647;27;20048;-62
2022/01/22 03:56:04;;;;;;;19.40;3.95;;;;;;;;;;5140766;27;20175;-64
2022/01/22 03:58:31;;;;;;;18.05;3.17;;;;;;;;;;5137315;27;20142;-64
2022/01/22 04:03:41;;;;;;;;;;;;;;;;;;5146787;27;20055;-64
2022/01/22 04:08:51;;;;;;;20.27;3.53;;;;;;;;;;5135692;27;20105;-64
2022/01/22 04:11:17;;;;;;;15.70;2.90;;;;;;;;;;5146804;27;20055;-64
2022/01/22 04:13:48;;;;;;;19.88;3.45;;;;;;;;;;5128828;27;20071;-64
2022/01/22 04:16:14;;;;;;;19.90;4.35;;;;;;;;;;5143990;27;20489;-64
2022/01/22 04:26:59;;;;;;;12.07;2.83;;;;;;;;;;5141485;27;20051;-64
2022/01/22 04:29:27;;;;;;;24.13;3.42;;;;;;;;;;5148393;27;20878;-63
2022/01/22 04:31:53;;;;;;;14.50;3.00;;;;;;;;;;5130855;27;20071;-64
2022/01/22 04:34:19;;;;;;;19.65;2.90;;;;;;;;;;5141629;27;20070;-64
2022/01/22 04:36:46;;;;;;;13.65;3.10;;;;;;;;;;5146795;27;20132;-64
2022/01/22 04:39:12;;;;;;;12.00;2.88;;;;;;;;;;5137651;27;20135;-63
2022/01/22 04:41:39;;;;;;;16.83;3.25;;;;;;;;;;5151685;27;20503;-64
2022/01/22 04:44:06;;;;;;;18.85;3.45;;;;;;;;;;5143551;27;20079;-64
2022/01/22 04:46:55;;;;;;;15.77;3.22;;;;;;;;;;5142717;27;20050;-65
2022/01/22 04:57:21;;;;;;;18.90;3.22;;;;;;;;;;5148893;27;20175;-64
2022/01/22 04:59:48;;;;;;;17.17;3.30;;;;;;;;;;5134767;27;20051;-64
2022/01/22 05:02:14;;;;;;;11.48;3.28;;;;;;;;;;5130528;27;20052;-64
2022/01/22 05:04:40;;;;;;;15.80;3.65;;;;;;;;;;5131640;27;20047;-64
2022/01/22 05:07:06;;;;;;;10.90;2.95;;;;;;;;;;5145755;27;20051;-64
2022/01/22 05:09:33;;;;;;;19.00;3.75;;;;;;;;;;5132161;27;20058;-64
2022/01/22 05:11:59;;;;;;;16.38;4.15;;;;;;;;;;5134749;27;20587;-64
2022/01/22 05:14:25;;;;;;;18.60;3.47;;;;;;;;;;5130482;27;20537;-65
2022/01/22 05:16:54;;;;;;;13.65;3.30;;;;;;;;;;5130885;27;20105;-63
2022/01/22 05:20:07;;;;;;;;;;;;;;;;;;5131499;27;20043;-64
2022/01/22 05:25:00;;;;;;;14.68;3.17;;;;;;;;;;5131018;27;20123;-63
2022/01/22 05:32:49;;;;;;;15.82;3.67;;;;;;;;;;5143300;27;20513;-63
2022/01/22 05:38:02;;;;;;;12.63;3.58;;;;;;;;;;5149303;27;20047;-63
2022/01/22 05:40:29;;;;;;;11.35;3.00;;;;;;;;;;5132937;27;20053;-63
2022/01/22 05:42:56;;;;;;;13.07;3.00;;;;;;;;;;5145793;27;20056;-63
2022/01/22 05:45:22;;;;;;;18.35;3.03;;;;;;;;;;5137338;27;20051;-63
2022/01/22 05:47:49;;;;;;;18.33;3.28;;;;;;;;;;5147650;27;20047;-63
2022/01/22 05:50:28;;;;;;;13.63;3.30;;;;;;;;;;5131162;27;20062;-64
2022/01/22 05:52:59;;;;;;;15.32;3.55;;;;;;;;;;5131701;27;20087;-63
2022/01/22 06:00:40;;;;;;;10.15;2.50;;;;;;;;;;5135291;27;20063;-63
2022/01/22 06:03:07;;;;;;;15.55;2.70;;;;;;;;;;5150873;27;20059;-63
2022/01/22 06:05:33;;;;;;;15.65;2.92;;;;;;;;;;5149184;27;20142;-63
2022/01/22 06:07:59;;;;;;;15.05;3.47;;;;;;;;;;5141258;27;20056;-63
2022/01/22 06:10:28;;;;;;;9.43;3.38;;;;;;;;;;5132190;27;20126;-63
2022/01/22 06:13:16;;;;;;;15.68;2.47;;;;;;;;;;5136482;27;20051;-63
2022/01/22 06:15:43;;;;;;;12.75;2.33;;;;;;;;;;5134518;27;20066;-63
2022/01/22 06:18:09;;;;;;;11.85;2.58;;;;;;;;;;5150363;27;20055;-64
2022/01/22 06:20:36;;;;;;;10.45;2.30;;;;;;;;;;5151472;27;20047;-63
2022/01/22 06:23:02;;;;;;;14.38;2.40;;;;;;;;;;5146733;27;20047;-63
2022/01/22 06:25:28;;;;;;;17.02;2.40;;;;;;;;;;5131503;27;20048;-64
2022/01/22 06:27:55;;;;;;;14.10;2.53;;;;;;;;;;5150911;27;20051;-63
2022/01/22 06:30:21;;;;;;;21.65;2.78;;;;;;;;;;5150693;27;21020;-63
2022/01/22 06:32:48;;;;;;;9.90;2.30;;;;;;;;;;5141007;27;20052;-64
2022/01/22 06:35:14;;;;;;;18.08;3.05;;;;;;;;;;5135209;27;20047;-64
2022/01/22 06:37:40;;;;;;;9.00;2.22;;;;;;;;;;5151148;27;20055;-64
2022/01/22 06:42:34;;;;;;;16.95;2.53;;;;;;;;;;5151191;27;20051;-64
2022/01/22 06:45:01;;;;;;;12.18;2.30;;;;;;;;;;5140530;27;20062;-63
2022/01/22 06:47:28;;;;;;;14.43;2.33;;;;;;;;;;5134533;27;20398;-64
2022/01/22 06:49:54;;;;;;;11.63;2.20;;;;;;;;;;5138758;27;20059;-64
2022/01/22 06:52:20;;;;;;;15.27;2.00;;;;;;;;;;5150777;27;20153;-64
2022/01/22 06:54:47;;;;;;;9.13;1.70;;;;;;;;;;5149856;27;20518;-64
2022/01/22 06:57:14;;;;;;;9.75;1.80;;;;;;;;;;5135820;27;20062;-64
2022/01/22 06:59:40;;;;;;;10.48;1.77;;;;;;;;;;5129971;27;20894;-64
2022/01/22 07:02:07;;;;;;;14.60;2.00;;;;;;;;;;5130919;27;20062;-64
2022/01/22 07:04:37;;;;;;;14.35;2.58;;;;;;;;;;5129933;27;20564;-64
2022/01/22 07:07:04;;;;;;;14.95;2.40;;;;;;;;;;5129670;27;20055;-64
2022/01/22 07:09:31;;;;;;;16.27;1.98;;;;;;;;;;5144462;27;20160;-64
2022/01/22 07:11:57;;;;;;;11.02;1.80;;;;;;;;;;5150781;27;20484;-64
2022/01/22 07:14:26;;;;;;;13.00;1.88;;;;;;;;;;5144902;27;20047;-64
2022/01/22 07:16:52;;;;;;;8.82;1.70;;;;;;;;;;5149850;27;20196;-64
2022/01/22 07:19:20;;;;;;;8.60;1.38;;;;;;;;;;5149907;27;20146;-64
2022/01/22 07:21:55;;;;;;;10.85;1.63;;;;;;;;;;5145156;27;20046;-64
2022/01/22 07:24:27;;;;;;;8.85;1.73;;;;;;;;;;5144001;27;20059;-64
2022/01/22 07:26:53;;;;;;;18.05;1.70;;;;;;;;;;5136316;27;20932;-65
2022/01/22 07:29:20;;;;;;;11.02;1.70;;;;;;;;;;5160863;27;20092;-64
2022/01/22 07:31:47;;;;;;;10.82;1.98;;;;;;;;;;5159058;27;20059;-65
2022/01/22 07:34:14;;;;;;;11.65;1.83;;;;;;;;;;5135085;27;20055;-64
2022/01/22 07:36:40;;;;;;;11.05;1.95;;;;;;;;;;5141568;27;20048;-64
2022/01/22 07:39:07;;;;;;;9.48;1.50;;;;;;;;;;5136942;27;20059;-65
2022/01/22 07:41:33;;;;;;;12.93;1.63;;;;;;;;;;5127786;27;20051;-64
2022/01/22 07:43:59;;;;;;;10.93;1.75;;;;;;;;;;5127381;27;20060;-64
2022/01/22 07:46:27;;;;;;;14.98;2.60;;;;;;;;;;5128092;27;20046;-64
2022/01/22 07:48:53;;;;;;;10.95;2.08;;;;;;;;;;5127754;27;20777;-64
2022/01/22 07:51:20;;;;;;;9.38;1.48;;;;;;;;;;5128919;27;20602;-64
2022/01/22 07:53:46;;;;;;;16.08;2.28;;;;;;;;;;5129212;27;20047;-64
2022/01/22 07:56:13;;;;;;;15.20;2.22;;;;;;;;;;5128827;27;20070;-64
2022/01/22 07:58:39;;;;;;;9.75;1.55;;;;;;;;;;5128846;27;20082;-64
2022/01/22 08:01:06;;;;;;;9.30;1.88;;;;;;;;;;5128546;27;20052;-65
2022/01/22 08:03:33;;;;;;;12.57;1.90;;;;;;;;;;5128938;27;20063;-64
2022/01/22 08:05:59;;;;;;;9.85;1.60;;;;;;;;;;5128833;27;20074;-64
2022/01/22 08:08:25;;;;;;;7.78;1.63;;;;;;;;;;5128385;27;20102;-64
2022/01/22 08:10:52;;;;;;;9.00;1.45;;;;;;;;;;5128655;27;20174;-64
2022/01/22 08:13:19;;;;;;;10.07;1.65;;;;;;;;;;5128470;27;20056;-64
2022/01/22 08:15:45;;;;;;;5.75;1.50;;;;;;;;;;5128238;27;20079;-64
2022/01/22 08:18:11;;;;;;;7.35;1.33;;;;;;;;;;5128902;27;20086;-64
2022/01/22 08:20:38;;;;;;;12.38;1.70;;;;;;;;;;5128879;27;20501;-65
2022/01/22 08:23:04;;;;;;;8.75;1.88;;;;;;;;;;5128145;27;20051;-65
2022/01/22 08:25:32;;;;;;;9.68;1.63;;;;;;;;;;5128121;27;20044;-64
2022/01/22 08:30:35;;;;;;;5.65;1.48;;;;;;;;;;5128880;27;20163;-64
2022/01/22 08:33:35;;;;;;;11.15;1.63;;;;;;;;;;5128486;27;20545;-64
2022/01/22 08:36:02;;;;;;;9.02;1.90;;;;;;;;;;5127906;27;20079;-64
2022/01/22 08:38:30;;;;;;;9.13;1.95;;;;;;;;;;5128123;27;20495;-64
2022/01/22 08:40:56;;;;;;;11.38;2.30;;;;;;;;;;5128245;27;20059;-64
2022/01/22 08:43:23;;;;;;;12.05;1.85;;;;;;;;;;5130196;27;20059;-64
2022/01/22 08:45:50;;;;;;;13.18;2.22;;;;;;;;;;5145073;27;20509;-63
2022/01/22 08:48:18;;;;;;;9.80;1.90;;;;;;;;;;5128691;27;20133;-64
2022/01/22 08:50:44;;;;;;;10.27;1.67;;;;;;;;;;5127818;27;20059;-64
2022/01/22 08:53:32;;;;;;;11.20;2.25;;;;;;;;;;5128298;27;20051;-64
2022/01/22 08:56:00;;;;;;;16.90;2.45;;;;;;;;;;5127699;27;20052;-64
2022/01/22 08:58:27;;;;;;;8.55;1.92;;;;;;;;;;5127704;27;20055;-64
2022/01/22 09:00:53;;;;;;;15.68;2.63;;;;;;;;;;5128022;27;20051;-64
2022/01/22 09:03:21;;;;;;;8.93;2.13;;;;;;;;;;5130325;27;21349;-64
2022/01/22 09:05:47;;;;;;;10.02;1.90;;;;;;;;;;5131764;27;20506;-64
2022/01/22 09:08:15;;;;;;;7.90;1.90;;;;;;;;;;5131862;27;20054;-64
2022/01/22 09:10:42;;;;;;;11.13;2.60;;;;;;;;;;5133598;27;20182;-64
2022/01/22 09:13:09;;;;;;;11.00;2.15;;;;;;;;;;5135586;27;20036;-64
2022/01/22 09:15:35;;;;;;;9.90;1.90;;;;;;;;;;5136170;27;20070;-64
2022/01/22 09:18:02;;;;;;;8.23;1.83;;;;;;;;;;5144722;27;20061;-64
2022/01/22 09:21:15;;;;;;;9.18;2.10;;;;;;;;;;5134233;27;20549;-64
2022/01/22 09:23:17;;;;;;;8.90;1.60;;;;;;;;;;5122656;27;20055;-64
2022/01/22 09:25:44;;;;;;;10.02;1.88;;;;;;;;;;5138576;27;20453;-65
2022/01/22 09:28:13;;;;;;;8.15;1.80;;;;;;;;;;5134979;27;20052;-63
2022/01/22 09:30:41;;;;;;;8.98;1.80;;;;;;;;;;5138377;27;20052;-64
2022/01/22 09:33:07;;;;;;;8.98;1.83;;;;;;;;;;5134321;27;20054;-64
2022/01/22 09:35:33;;;;;;;11.68;2.13;;;;;;;;;;5136050;27;20058;-62
2022/01/22 09:38:00;;;;;;;11.93;1.92;;;;;;;;;;5131714;27;20523;-63
2022/01/22 09:40:27;;;;;;;10.23;2.38;;;;;;;;;;5136343;27;20413;-63
2022/01/22 09:42:53;;;;;;;11.05;1.83;;;;;;;;;;5151230;27;20055;-63
2022/01/22 09:45:21;;;;;;;11.82;1.73;;;;;;;;;;5156616;27;20055;-63
2022/01/22 09:47:49;;;;;;;11.23;2.13;;;;;;;;;;5135025;27;20147;-64
2022/01/22 09:50:16;;;;;;;15.00;2.00;;;;;;;;;;5130735;27;20052;-64
2022/01/22 09:52:44;;;;;;;6.72;2.00;;;;;;;;;;5144115;27;20811;-63
2022/01/22 09:55:10;;;;;;;6.97;1.73;;;;;;;;;;5146642;27;20058;-63
2022/01/22 09:57:37;;;;;;;11.82;2.10;;;;;;;;;;5140717;27;20052;-62
2022/01/22 10:00:07;;;;;;;8.18;2.00;;;;;;;;;;5149711;27;20137;-62
2022/01/22 10:02:41;;;;;;;8.70;2.20;;;;;;;;;;5131234;27;20051;-62
2022/01/22 10:05:26;;;;;;;6.10;2.20;;;;;;;;;;5137853;27;20071;-63
2022/01/22 10:07:53;;;;;;;13.05;2.10;;;;;;;;;;5146232;27;20055;-63
2022/01/22 10:10:20;;;;;;;7.00;2.10;;;;;;;;;;5138085;27;20418;-63
2022/01/22 10:12:47;;;;;;;14.40;2.90;;;;;;;;;;5149365;27;20585;-63
2022/01/22 10:15:15;;;;;;;13.27;2.58;;;;;;;;;;5137381;27;20112;-63
2022/01/22 10:17:46;;;;;;;9.65;2.40;;;;;;;;;;5130132;27;20056;-64
2022/01/22 10:20:22;;;;;;;8.25;2.00;;;;;;;;;;5136196;27;20131;-64
2022/01/22 10:22:49;;;;;;;13.23;2.20;;;;;;;;;;5130067;27;20062;-64
2022/01/22 10:25:19;;;;;;;11.02;2.17;;;;;;;;;;5129705;27;20051;-64
2022/01/22 10:27:54;;;;;;;14.95;2.60;;;;;;;;;;5132079;27;20047;-64
2022/01/22 10:30:20;;;;;;;10.75;2.58;;;;;;;;;;5139705;27;20061;-64
2022/01/22 10:32:58;;;;;;;10.00;2.00;;;;;;;;;;5137915;27;20046;-64
2022/01/22 10:35:26;;;;;;;8.32;1.95;;;;;;;;;;5130808;27;20058;-64
2022/01/22 10:38:12;;;;;;;5.43;1.90;;;;;;;;;;5143279;27;20051;-64
2022/01/22 10:40:42;;;;;;;6.85;1.90;;;;;;;;;;5138360;27;20273;-64
2022/01/22 10:43:12;;;;;;;7.82;1.98;;;;;;;;;;5129938;27;20059;-64
2022/01/22 10:45:42;;;;;;;8.15;1.98;;;;;;;;;;5133397;27;20070;-64
2022/01/22 10:48:20;;;;;;;4.72;1.75;;;;;;;;;;5156382;27;20053;-64
2022/01/22 10:50:46;;;;;;;;;;;;;;;;;;5150334;27;20890;-64
2022/01/22 10:53:13;;;;;;;7.05;1.80;;;;;;;;;;5147862;27;44794;-64
2022/01/22 10:55:58;;;;;;;7.32;2.10;;;;;;;;;;5137212;27;20058;-64
2022/01/22 10:58:25;;;;;;;11.43;2.00;;;;;;;;;;5129568;27;20548;-64
2022/01/22 11:00:59;;;;;;;11.75;2.60;;;;;;;;;;5137682;27;20051;-64
2022/01/22 11:03:28;;;;;;;6.90;1.98;;;;;;;;;;5129231;27;20137;-64
2022/01/22 11:05:55;;;;;;;10.90;2.00;;;;;;;;;;5139877;27;20057;-64
2022/01/22 11:08:21;;;;;;;11.23;2.28;;;;;;;;;;5147631;27;20061;-64
2022/01/22 11:10:49;;;;;;;6.82;2.20;;;;;;;;;;5149893;27;20047;-64
2022/01/22 11:13:15;;;;;;;9.10;1.70;;;;;;;;;;5133877;27;20043;-64
2022/01/22 11:15:43;;;;;;;6.75;1.60;;;;;;;;;;5132826;27;20543;-65
2022/01/22 11:18:11;;;;;;;9.23;1.88;;;;;;;;;;5134868;27;20051;-64
2022/01/22 11:20:38;;;;;;;9.23;1.77;;;;;;;;;;5145236;27;20134;-64
2022/01/22 11:23:05;;;;;;;7.43;1.90;;;;;;;;;;5136134;27;20056;-64
2022/01/22 11:25:33;;;;;;;4.82;1.77;;;;;;;;;;5147680;27;20048;-64
2022/01/22 11:28:00;;;;;;;7.95;2.20;;;;;;;;;;5139504;27;20535;-63
2022/01/22 11:30:27;;;;;;;8.45;1.95;;;;;;;;;;5138848;27;20057;-63
2022/01/22 11:33:09;;;;;;;6.50;2.00;;;;;;;;;;5149768;27;20522;-63
2022/01/22 11:35:54;;;;;;;7.68;2.10;;;;;;;;;;5129908;27;20142;-63
2022/01/22 11:38:33;;;;;;;11.02;2.17;;;;;;;;;;5137737;27;20051;-63
2022/01/22 11:40:59;;;;;;;;;;;;;;;;;;5129718;27;20048;-63
2022/01/22 11:43:49;;;;;;;14.93;4.05;;;;;;;;;;5140377;27;44286;-62
2022/01/22 11:46:19;;;;;;;10.07;4.50;;;;;;;;;;5135244;27;20060;-62
2022/01/22 11:49:06;;;;;;;9.98;4.22;;;;;;;;;;5137788;27;20054;-63
2022/01/22 11:51:32;;;;;;;12.55;4.60;;;;;;;;;;5158844;27;20542;-64
2022/01/22 11:53:59;;;;;;;13.43;4.10;;;;;;;;;;5134750;27;20062;-64
2022/01/22 11:56:30;;;;;;;13.15;4.72;;;;;;;;;;5131982;27;20055;-64
2022/01/22 11:58:56;;;;;;;15.02;4.78;;;;;;;;;;5136102;27;20540;-64
2022/01/22 12:01:38;;;;;;;10.82;4.22;;;;;;;;;;5146317;27;20101;-64
2022/01/22 12:04:05;;;;;;;16.02;4.72;;;;;;;;;;5128028;27;20554;-64
2022/01/22 12:06:59;;;;;;;11.82;3.67;;;;;;;;;;5134876;27;20055;-63
2022/01/22 12:09:26;;;;;;;10.32;3.65;;;;;;;;;;5144779;27;20519;-64
2022/01/22 12:14:50;;;;;;;9.82;3.35;;;;;;;;;;5128735;27;20200;-63
2022/01/22 12:17:24;;;;;;;6.90;3.05;;;;;;;;;;5129027;27;20527;-63
2022/01/22 12:20:05;;;;;;;11.23;3.05;;;;;;;;;;5127761;27;20055;-64
2022/01/22 12:22:34;;;;;;;12.27;3.55;;;;;;;;;;5128936;27;20124;-64
2022/01/22 12:25:07;;;;;;;12.70;2.72;;;;;;;;;;5128141;27;20056;-63
2022/01/22 12:27:43;;;;;;;14.75;3.40;;;;;;;;;;5129712;27;20513;-64
2022/01/22 12:30:10;;;;;;;10.70;2.72;;;;;;;;;;5128161;27;20056;-64
2022/01/22 12:32:47;;;;;;;9.48;2.95;;;;;;;;;;5127886;27;20172;-64
2022/01/22 12:35:34;;;;;;;7.13;2.22;;;;;;;;;;5128338;27;20130;-64
2022/01/22 12:38:23;;;;;;;9.07;2.70;;;;;;;;;;5131507;27;20527;-63
2022/01/22 12:40:54;;;;;;;8.07;2.17;;;;;;;;;;5153254;27;20142;-64
2022/01/22 12:43:29;;;;;;;8.30;2.20;;;;;;;;;;5148040;27;20062;-64
2022/01/22 12:45:56;;;;;;;9.15;2.72;;;;;;;;;;5151628;27;20047;-64
2022/01/22 12:48:25;;;;;;;12.73;2.80;;;;;;;;;;5151012;27;20100;-64
2022/01/22 12:50:51;;;;;;;9.80;2.80;;;;;;;;;;5152808;27;20493;-64
2022/01/22 12:53:18;;;;;;;7.82;2.85;;;;;;;;;;5136909;27;20047;-64
2022/01/22 12:58:19;;;;;;;11.55;3.70;;;;;;;;;;5134089;27;20444;-64
2022/01/22 13:00:45;;;;;;;9.30;3.25;;;;;;;;;;5131882;27;20139;-64
2022/01/22 13:03:12;;;;;;;9.38;3.05;;;;;;;;;;5132105;27;20086;-64
2022/01/22 13:05:44;;;;;;;14.98;3.75;;;;;;;;;;5132183;27;20589;-65
2022/01/22 13:08:11;;;;;;;10.93;3.20;;;;;;;;;;5143486;27;20142;-65
2022/01/22 13:10:43;;;;;;;9.13;2.92;;;;;;;;;;5151087;27;20551;-64
2022/01/22 13:13:14;;;;;;;13.68;3.00;;;;;;;;;;5152067;27;20083;-64
2022/01/22 13:15:40;;;;;;;10.63;2.95;;;;;;;;;;5152100;27;20062;-64
2022/01/22 13:18:07;;;;;;;13.45;4.15;;;;;;;;;;5151197;27;20051;-64
2022/01/22 13:20:34;;;;;;;16.80;3.95;;;;;;;;;;5152303;27;20051;-64
2022/01/22 13:23:12;;;;;;;17.05;4.20;;;;;;;;;;5151912;27;20052;-64
2022/01/22 13:25:39;;;;;;;17.63;4.10;;;;;;;;;;5140799;27;20052;-64
2022/01/22 13:28:14;;;;;;;11.25;4.18;;;;;;;;;;5131414;27;20497;-64
2022/01/22 13:30:46;;;;;;;14.13;3.92;;;;;;;;;;5135132;27;20062;-64
2022/01/22 13:33:41;;;;;;;9.65;3.60;;;;;;;;;;5151870;27;20097;-63
2022/01/22 13:45:03;;;;;;;12.43;4.45;;;;;;;;;;5131632;27;20055;-64
2022/01/22 13:49:21;;;;;;;16.00;5.35;;;;;;;;;;5131953;27;21149;-64
2022/01/22 13:51:47;;;;;;;15.27;5.13;;;;;;;;;;5130430;27;20051;-64
2022/01/22 13:54:14;;;;;;;16.17;5.38;;;;;;;;;;5138710;27;20053;-63
2022/01/22 13:56:53;;;;;;;13.63;4.78;;;;;;;;;;5135580;27;20055;-63
2022/01/22 13:59:26;;;;;;;12.40;4.88;;;;;;;;;;5135909;27;20052;-64
2022/01/22 14:04:42;;;;;;;14.63;5.70;;;;;;;;;;5131094;27;20980;-63
2022/01/22 14:07:15;;;;;;;12.25;4.75;;;;;;;;;;5131886;27;20051;-63
2022/01/22 14:09:52;;;;;;;14.68;4.95;;;;;;;;;;5149167;27;20059;-63
2022/01/22 14:12:18;;;;;;;15.80;5.45;;;;;;;;;;5143687;27;20568;-63
2022/01/22 14:14:55;;;;;;;13.73;5.43;;;;;;;;;;5133870;27;20480;-64
2022/01/22 14:17:26;;;;;;;13.48;5.10;;;;;;;;;;5131242;27;20150;-64
2022/01/22 14:19:59;;;;;;;18.30;5.35;;;;;;;;;;5130416;27;20054;-64
2022/01/22 14:22:25;;;;;;;16.35;5.32;;;;;;;;;;5129924;27;20075;-63
2022/01/22 14:25:12;;;;;;;15.27;5.32;;;;;;;;;;5150443;27;20081;-64
2022/01/22 14:27:38;;;;;;;11.57;5.07;;;;;;;;;;5144515;27;20067;-64
2022/01/22 14:30:05;;;;;;;14.27;5.13;;;;;;;;;;5133697;27;20094;-64
2022/01/22 14:32:31;;;;;;;15.18;6.05;;;;;;;;;;5130529;27;20079;-63
2022/01/22 14:34:59;;;;;;;11.93;4.55;;;;;;;;;;5130420;27;20160;-63
2022/01/22 14:37:28;;;;;;;14.48;5.22;;;;;;;;;;5129426;27;20134;-63
2022/01/22 14:45:23;;;;;;;15.65;4.53;;;;;;;;;;5132889;27;20062;-63
2022/01/22 14:47:54;;;;;;;13.18;4.75;;;;;;;;;;5132374;27;20493;-63
2022/01/22 14:50:20;;;;;;;13.55;4.78;;;;;;;;;;5130190;27;20536;-63
2022/01/22 14:52:47;;;;;;;14.93;5.05;;;;;;;;;;5128894;27;20509;-63
2022/01/22 14:55:14;;;;;;;12.02;4.55;;;;;;;;;;5129654;27;20135;-63
2022/01/22 14:57:41;;;;;;;12.63;4.70;;;;;;;;;;5130280;27;20056;-64
2022/01/22 15:00:09;;;;;;;16.63;5.33;;;;;;;;;;5129044;27;20074;-63
2022/01/22 15:02:36;;;;;;;19.13;4.72;;;;;;;;;;5130314;27;20281;-64
2022/01/22 15:05:04;;;;;;;13.50;3.97;;;;;;;;;;5129781;27;20056;-64
2022/01/22 15:07:30;;;;;;;14.68;5.03;;;;;;;;;;5145921;27;20057;-63
2022/01/22 15:09:56;;;;;;;11.52;4.40;;;;;;;;;;5150733;27;20062;-63
2022/01/22 15:12:23;;;;;;;11.70;4.85;;;;;;;;;;5151182;27;20071;-64
2022/01/22 15:14:53;;;;;;;12.65;4.38;;;;;;;;;;5140334;27;20051;-64
2022/01/22 15:19:47;;;;;;;12.80;5.30;;;;;;;;;;5128282;27;20050;-63
2022/01/22 15:22:17;;;;;;;25.35;5.22;;;;;;;;;;5129908;27;20543;-62
2022/01/22 15:24:51;;;;;;;9.65;3.95;;;;;;;;;;5134931;27;20159;-62
2022/01/22 15:27:19;;;;;;;16.92;4.25;;;;;;;;;;5134347;27;20055;-63
2022/01/22 15:29:58;;;;;;;13.27;4.60;;;;;;;;;;5144338;27;20100;-63
2022/01/22 15:35:02;;;;;;;19.48;5.60;;;;;;;;;;5150259;27;20055;-62
2022/01/22 15:37:28;;;;;;;16.05;5.35;;;;;;;;;;5148595;27;20094;-62
2022/01/22 15:39:54;;;;;;;13.52;5.07;;;;;;;;;;5148878;27;20083;-62
2022/01/22 15:42:21;;;;;;;19.48;6.18;;;;;;;;;;5147697;27;20058;-63
2022/01/22 15:44:47;;;;;;;17.00;6.05;;;;;;;;;;5150446;27;20047;-63
2022/01/22 15:47:18;;;;;;;14.73;5.68;;;;;;;;;;5147831;27;20152;-62
2022/01/22 15:49:50;;;;;;;13.75;6.30;;;;;;;;;;5150083;27;20076;-62
2022/01/22 15:52:17;;;;;;;18.58;6.20;;;;;;;;;;5149500;27;20138;-62
2022/01/22 15:54:44;;;;;;;13.38;6.22;;;;;;;;;;5140835;27;20055;-63
2022/01/22 15:57:12;;;;;;;16.52;6.60;;;;;;;;;;5135478;27;20111;-61
2022/01/22 15:59:38;;;;;;;17.40;6.60;;;;;;;;;;5132725;27;20057;-61
2022/01/22 16:02:05;;;;;;;15.02;6.82;;;;;;;;;;5133755;27;20058;-62
2022/01/22 16:04:33;;;;;;;15.70;6.97;;;;;;;;;;5131311;27;20059;-62
2022/01/22 16:07:06;;;;;;;18.60;7.20;;;;;;;;;;5128131;27;20090;-62
2022/01/22 16:09:33;;;;;;;18.25;7.50;;;;;;;;;;5140224;27;20062;-63
2022/01/22 16:12:14;;;;;;;17.95;7.10;;;;;;;;;;5151246;27;20078;-63
2022/01/22 16:14:47;;;;;;;18.63;6.65;;;;;;;;;;5153282;27;20116;-62
2022/01/22 16:17:15;;;;;;;17.95;7.22;;;;;;;;;;5148461;27;20493;-62
2022/01/22 16:19:41;;;;;;;15.07;7.43;;;;;;;;;;5149189;27;21433;-62
2022/01/22 16:22:08;;;;;;;17.50;8.27;;;;;;;;;;5147104;27;20055;-63
2022/01/22 16:24:34;;;;;;;17.80;7.80;;;;;;;;;;5154840;27;20075;-63
2022/01/22 16:27:01;;;;;;;24.33;7.85;;;;;;;;;;5152999;27;20099;-63
2022/01/22 16:29:28;;;;;;;20.15;7.72;;;;;;;;;;5153446;27;20101;-62
2022/01/22 16:31:54;;;;;;;21.17;7.63;;;;;;;;;;5143428;27;20060;-62
2022/01/22 16:34:21;;;;;;;22.17;8.52;;;;;;;;;;5131473;27;20055;-62
2022/01/22 16:36:47;;;;;;;15.75;7.25;;;;;;;;;;5144796;27;20501;-62
2022/01/22 16:39:13;;;;;;;18.38;7.95;;;;;;;;;;5131979;27;20440;-62
2022/01/22 16:41:40;;;;;;;17.25;7.72;;;;;;;;;;5131667;27;20486;-62